Observation data for Turkey on 11/08/2019      Previous  Date       Current Mesonet Observations  Soil Data  Daily Summary Page  Observations in Plain Language
KTUR 080600Z 32004KT 02/M01 A3047 RMK A01 T00241007  RH  081%=      5-min Rain = 0
KTUR 080605Z 32004KT 02/M01 A3047 RMK A01 T00241009  RH  079%=      5-min Rain = 0
KTUR 080610Z 33004KT 02/M01 A3047 RMK A01 T00241012  RH  078%=      5-min Rain = 0
KTUR 080615Z 33004KT 03/M01 A3046 RMK A01 T00251009  RH  079%=      5-min Rain = 0
KTUR 080620Z 34003KT 03/M01 A3046 RMK A01 T00251008  RH  080%=      5-min Rain = 0
KTUR 080625Z 34004KT 03/M01 A3046 RMK A01 T00251008  RH  080%=      5-min Rain = 0
KTUR 080630Z 34005KT 03/M01 A3046 RMK A01 T00251010  RH  078%=      5-min Rain = 0
KTUR 080635Z 34005KT 03/M01 A3046 RMK A01 T00251010  RH  079%=      5-min Rain = 0
KTUR 080640Z 34005KT 03/M01 A3046 RMK A01 T00251008  RH  079%=      5-min Rain = 0
KTUR 080645Z 34005KT 03/M01 A3045 RMK A01 T00251010  RH  079%=      5-min Rain = 0
KTUR 080650Z 34004KT 03/M01 A3045 RMK A01 T00251011  RH  078%=      5-min Rain = 0
KTUR 080655Z 34004KT 03/M01 A3045 RMK A01 T00251012  RH  078%=      5-min Rain = 0
KTUR 080700Z 31004KT 03/M01 A3045 RMK A01 T00251012  RH  077%=      5-min Rain = 0
KTUR 080705Z 34004KT 03/M01 A3045 RMK A01 T00251009  RH  079%=      5-min Rain = 0
KTUR 080710Z 35004KT 03/M01 A3045 RMK A01 T00251008  RH  080%=      5-min Rain = 0
KTUR 080715Z 33003KT 03/M01 A3045 RMK A01 T00251010  RH  078%=      5-min Rain = 0
KTUR 080720Z 34003KT 03/M01 A3045 RMK A01 T00261008  RH  079%=      5-min Rain = 0
KTUR 080725Z 34004KT 03/M01 A3045 RMK A01 T00261010  RH  078%=      5-min Rain = 0
KTUR 080730Z 35004KT 03/M01 A3045 RMK A01 T00251013  RH  077%=      5-min Rain = 0
KTUR 080735Z 35004KT 03/M01 A3045 RMK A01 T00251013  RH  077%=      5-min Rain = 0
KTUR 080740Z 34004KT 03/M01 A3045 RMK A01 T00261013  RH  077%=      5-min Rain = 0
KTUR 080745Z 33003KT 03/M01 A3045 RMK A01 T00261012  RH  077%=      5-min Rain = 0
KTUR 080750Z 33004KT 03/M01 A3045 RMK A01 T00261011  RH  078%=      5-min Rain = 0
KTUR 080755Z 32004KT 03/M01 A3045 RMK A01 T00261010  RH  078%=      5-min Rain = 0
KTUR 080800Z 32003KT 03/M01 A3045 RMK A01 T00261011  RH  078%=      5-min Rain = 0
KTUR 080805Z 33003KT 03/M01 A3044 RMK A01 T00261009  RH  078%=      5-min Rain = 0
KTUR 080810Z 31003KT 03/M01 A3045 RMK A01 T00261009  RH  079%=      5-min Rain = 0
KTUR 080815Z 33002KT 03/M01 A3044 RMK A01 T00261008  RH  079%=      5-min Rain = 0
KTUR 080820Z 33002KT 03/M01 A3044 RMK A01 T00261009  RH  079%=      5-min Rain = 0
KTUR 080825Z 34002KT 03/M01 A3044 RMK A01 T00261011  RH  078%=      5-min Rain = 0
KTUR 080830Z 33002KT 03/M01 A3044 RMK A01 T00261011  RH  077%=      5-min Rain = 0
KTUR 080835Z 36002KT 03/M01 A3044 RMK A01 T00271010  RH  078%=      5-min Rain = 0
KTUR 080840Z 35002KT 03/M02 A3044 RMK A01 T00271015  RH  075%=      5-min Rain = 0
KTUR 080845Z 36001KT 03/M02 A3044 RMK A01 T00271015  RH  075%=      5-min Rain = 0
KTUR 080850Z 01001KT 03/M02 A3043 RMK A01 T00271015  RH  075%=      5-min Rain = 0
KTUR 080855Z 00002KT 03/M02 A3043 RMK A01 T00271015  RH  075%=      5-min Rain = 0
KTUR 080900Z 35001KT 03/M02 A3043 RMK A01 T00271015  RH  075%=      5-min Rain = 0
KTUR 080905Z 00001KT 03/M02 A3043 RMK A01 T00271015  RH  074%=      5-min Rain = 0
KTUR 080910Z 00000KT 03/M02 A3043 RMK A01 T00271017  RH  074%=      5-min Rain = 0
KTUR 080915Z 00001KT 03/M02 A3043 RMK A01 T00271017  RH  073%=      5-min Rain = 0
KTUR 080920Z 01002KT 03/M03 A3043 RMK A01 T00271025  RH  069%=      5-min Rain = 0
KTUR 080925Z 35001KT 03/M02 A3043 RMK A01 T00271023  RH  070%=      5-min Rain = 0
KTUR 080930Z 35001KT 03/M02 A3044 RMK A01 T00281023  RH  070%=      5-min Rain = 0
KTUR 080935Z 34002KT 03/M02 A3044 RMK A01 T00271022  RH  071%=      5-min Rain = 0
KTUR 080940Z 32002KT 03/M02 A3044 RMK A01 T00271019  RH  072%=      5-min Rain = 0
KTUR 080945Z 34002KT 03/M02 A3044 RMK A01 T00271018  RH  073%=      5-min Rain = 0
KTUR 080950Z 33002KT 03/M02 A3043 RMK A01 T00271017  RH  073%=      5-min Rain = 0
KTUR 080955Z 33002KT 03/M02 A3043 RMK A01 T00281015  RH  075%=      5-min Rain = 0
KTUR 081000Z 33003KT 03/M01 A3043 RMK A01 T00281014  RH  075%=      5-min Rain = 0
KTUR 081005Z 32003KT 03/M01 A3043 RMK A01 T00281014  RH  074%=      5-min Rain = 0
KTUR 081010Z 32004KT 03/M02 A3043 RMK A01 T00281016  RH  074%=      5-min Rain = 0
KTUR 081015Z 34003KT 03/M02 A3043 RMK A01 T00271015  RH  074%=      5-min Rain = 0
KTUR 081020Z 34003KT 03/M02 A3043 RMK A01 T00271015  RH  075%=      5-min Rain = 0
KTUR 081025Z 00003KT 03/M02 A3043 RMK A01 T00271017  RH  073%=      5-min Rain = 0
KTUR 081030Z 36003KT 03/M02 A3043 RMK A01 T00271020  RH  072%=      5-min Rain = 0
KTUR 081035Z 01003KT 03/M02 A3043 RMK A01 T00271020  RH  072%=      5-min Rain = 0
KTUR 081040Z 01003KT 03/M02 A3043 RMK A01 T00271023  RH  070%=      5-min Rain = 0
KTUR 081045Z 00003KT 03/M02 A3043 RMK A01 T00271021  RH  071%=      5-min Rain = 0
KTUR 081050Z 36003KT 03/M02 A3043 RMK A01 T00271019  RH  072%=      5-min Rain = 0
KTUR 081055Z 01002KT 03/M02 A3043 RMK A01 T00271017  RH  073%=      5-min Rain = 0
KTUR 081100Z 02003KT 03/M02 A3042 RMK A01 T00271019  RH  073%=      5-min Rain = 0
KTUR 081105Z 02003KT 03/M02 A3042 RMK A01 T00271016  RH  074%=      5-min Rain = 0
KTUR 081110Z 02002KT 03/M02 A3042 RMK A01 T00271016  RH  074%=      5-min Rain = 0
KTUR 081115Z 03002KT 03/M01 A3042 RMK A01 T00271014  RH  075%=      5-min Rain = 0
KTUR 081120Z 06003KT 03/M01 A3042 RMK A01 T00271013  RH  076%=      5-min Rain = 0
KTUR 081125Z 06003KT 03/M01 A3042 RMK A01 T00261014  RH  076%=      5-min Rain = 0
KTUR 081130Z 05002KT 03/M02 A3042 RMK A01 T00261015  RH  075%=      5-min Rain = 0
KTUR 081135Z 06002KT 03/M02 A3043 RMK A01 T00261015  RH  075%=      5-min Rain = 0
KTUR 081140Z 07002KT 03/M02 A3042 RMK A01 T00261021  RH  072%=      5-min Rain = 0
KTUR 081145Z 08002KT 03/M02 A3042 RMK A01 T00261023  RH  071%=      5-min Rain = 0
KTUR 081150Z 08003KT 03/M03 A3042 RMK A01 T00261027  RH  069%=      5-min Rain = 0
KTUR 081155Z 08002KT 03/M03 A3042 RMK A01 T00261031  RH  067%=      5-min Rain = 0
KTUR 081200Z 07003KT 03/M03 A3042 RMK A01 T00261030  RH  067%=      5-min Rain = 0
KTUR 081205Z 07003KT 03/M03 A3042 RMK A01 T00261030  RH  068%=      5-min Rain = 0
KTUR 081210Z 08003KT 03/M03 A3041 RMK A01 T00261028  RH  068%=      5-min Rain = 0
KTUR 081215Z 11003KT 03/M03 A3041 RMK A01 T00261026  RH  070%=      5-min Rain = 0
KTUR 081220Z 12002KT 03/M03 A3041 RMK A01 T00261026  RH  070%=      5-min Rain = 0
KTUR 081225Z 12003KT 03/M03 A3041 RMK A01 T00251029  RH  068%=      5-min Rain = 0
KTUR 081230Z 10002KT 03/M03 A3041 RMK A01 T00261031  RH  067%=      5-min Rain = 0
KTUR 081235Z 09002KT 03/M03 A3041 RMK A01 T00261032  RH  067%=      5-min Rain = 0
KTUR 081240Z 09002KT 03/M03 A3041 RMK A01 T00261028  RH  068%=      5-min Rain = 0
KTUR 081245Z 09002KT 03/M03 A3041 RMK A01 T00261032  RH  066%=      5-min Rain = 0
KTUR 081250Z 08002KT 03/M04 A3041 RMK A01 T00261035  RH  065%=      5-min Rain = 0
KTUR 081255Z 08002KT 03/M04 A3041 RMK A01 T00261035  RH  065%=      5-min Rain = 0
KTUR 081300Z 10003KT 03/M03 A304 RMK A01 T00261033  RH  066%=      5-min Rain = 0
KTUR 081305Z 10003KT 03/M03 A3041 RMK A01 T00261033  RH  066%=      5-min Rain = 0
KTUR 081310Z 11002KT 03/M03 A3041 RMK A01 T00261030  RH  067%=      5-min Rain = 0
KTUR 081315Z 11002KT 03/M03 A3041 RMK A01 T00261032  RH  066%=      5-min Rain = 0
KTUR 081320Z 11002KT 03/M03 A3041 RMK A01 T00261034  RH  066%=      5-min Rain = 0
KTUR 081325Z 11002KT 03/M03 A3041 RMK A01 T00261033  RH  066%=      5-min Rain = 0
KTUR 081330Z 11002KT 03/M03 A3041 RMK A01 T00261034  RH  065%=      5-min Rain = 0
KTUR 081335Z 12003KT 03/M03 A3041 RMK A01 T00261034  RH  065%=      5-min Rain = 0
KTUR 081340Z 13003KT 03/M04 A3041 RMK A01 T00261035  RH  065%=      5-min Rain = 0
KTUR 081345Z 11003KT 03/M04 A3042 RMK A01 T00261036  RH  064%=      5-min Rain = 0
KTUR 081350Z 11004KT 03/M04 A3042 RMK A01 T00261040  RH  062%=      5-min Rain = 0
KTUR 081355Z 11003KT 03/M04 A3042 RMK A01 T00271038  RH  063%=      5-min Rain = 0
KTUR 081400Z 09002KT 03/M03 A3042 RMK A01 T00271033  RH  066%=      5-min Rain = 0
KTUR 081405Z 09002KT 03/M03 A3043 RMK A01 T00271034  RH  065%=      5-min Rain = 0
KTUR 081410Z 11002KT 03/M03 A3043 RMK A01 T00281031  RH  066%=      5-min Rain = 0
KTUR 081415Z 12003KT 03/M03 A3043 RMK A01 T00281034  RH  064%=      5-min Rain = 0
KTUR 081420Z 13002KT 03/M04 A3043 RMK A01 T00281035  RH  064%=      5-min Rain = 0
KTUR 081425Z 14001KT 03/M04 A3044 RMK A01 T00291036  RH  063%=      5-min Rain = 0
KTUR 081430Z 14001KT 03/M04 A3044 RMK A01 T00291035  RH  063%=      5-min Rain = 0
KTUR 081435Z 14001KT 03/M03 A3044 RMK A01 T00301034  RH  064%=      5-min Rain = 0
KTUR 081440Z 14001KT 03/M03 A3044 RMK A01 T00311034  RH  063%=      5-min Rain = 0
KTUR 081445Z 14001KT 03/M03 A3044 RMK A01 T00311032  RH  064%=      5-min Rain = 0
KTUR 081450Z 14000KT 03/M03 A3044 RMK A01 T00311031  RH  064%=      5-min Rain = 0
KTUR 081455Z 14000KT 03/M03 A3044 RMK A01 T00321032  RH  064%=      5-min Rain = 0
KTUR 081500Z 11001KT 03/M03 A3044 RMK A01 T00321032  RH  063%=      5-min Rain = 0
KTUR 081505Z 08001KT 03/M03 A3044 RMK A01 T00321029  RH  065%=      5-min Rain = 0
KTUR 081510Z 09001KT 03/M03 A3044 RMK A01 T00331027  RH  065%=      5-min Rain = 0
KTUR 081515Z 11002KT 03/M03 A3044 RMK A01 T00331028  RH  065%=      5-min Rain = 0
KTUR 081520Z 13002KT 03/M03 A3044 RMK A01 T00321030  RH  064%=      5-min Rain = 0
KTUR 081525Z 13004KT 03/M03 A3043 RMK A01 T00331025  RH  066%=      5-min Rain = 0
KTUR 081530Z 14005KT 04/M02 A3043 RMK A01 T00351024  RH  066%=      5-min Rain = 0
KTUR 081535Z 14004KT 04/M02 A3043 RMK A01 T00361022  RH  066%=      5-min Rain = 0
KTUR 081540Z 15005KT 04/M02 A3043 RMK A01 T00371022  RH  066%=      5-min Rain = 0
KTUR 081545Z 14005KT 04/M02 A3043 RMK A01 T00371022  RH  066%=      5-min Rain = 0
KTUR 081550Z 16004KT 04/M02 A3043 RMK A01 T00381020  RH  066%=      5-min Rain = 0
KTUR 081555Z 15004KT 04/M02 A3042 RMK A01 T00381021  RH  066%=      5-min Rain = 0
KTUR 081600Z 16004KT 04/M02 A3043 RMK A01 T00401018  RH  067%=      5-min Rain = 0
KTUR 081605Z 14005KT 04/M02 A3042 RMK A01 T00401019  RH  066%=      5-min Rain = 0
KTUR 081610Z 15005KT 04/M02 A3042 RMK A01 T00411015  RH  067%=      5-min Rain = 0
KTUR 081615Z 15005KT 04/M02 A3042 RMK A01 T00421015  RH  067%=      5-min Rain = 0
KTUR 081620Z 15004KT 04/M01 A3042 RMK A01 T00441013  RH  067%=      5-min Rain = 0
KTUR 081625Z 16005KT 05/M01 A3042 RMK A01 T00471011  RH  067%=      5-min Rain = 0
KTUR 081630Z 15005KT 05/M01 A3042 RMK A01 T00481007  RH  068%=      5-min Rain = 0
KTUR 081635Z 16006KT 05/M00 A3041 RMK A01 T00511004  RH  069%=      5-min Rain = 0
KTUR 081640Z 15007KT 05/M00 A3041 RMK A01 T00501004  RH  068%=      5-min Rain = 0
KTUR 081645Z 14007KT 05/M00 A3041 RMK A01 T00531001  RH  069%=      5-min Rain = 0
KTUR 081650Z 16007KT 05/M00 A304 RMK A01 T00521002  RH  068%=      5-min Rain = 0
KTUR 081655Z 15007KT 06/00 A304 RMK A01 T00550001  RH  069%=      5-min Rain = 0
KTUR 081700Z 15007KT 06/00 A3039 RMK A01 T00590000  RH  067%=      5-min Rain = 0
KTUR 081705Z 15006KT 06/00 A3039 RMK A01 T00600003  RH  068%=      5-min Rain = 0
KTUR 081710Z 16006KT 06/00 A3039 RMK A01 T00600004  RH  068%=      5-min Rain = 0
KTUR 081715Z 15005KT 06/00 A3039 RMK A01 T00610004  RH  067%=      5-min Rain = 0
KTUR 081720Z 16005KT 06/01 A3039 RMK A01 T00630005  RH  067%=      5-min Rain = 0
KTUR 081725Z 17005KT 06/00 A3039 RMK A01 T00620004  RH  067%=      5-min Rain = 0
KTUR 081730Z 18004KT 07/01 A3039 RMK A01 T00660009  RH  067%=      5-min Rain = 0
KTUR 081735Z 20004KT 07/01 A3039 RMK A01 T00670008  RH  067%=      5-min Rain = 0
KTUR 081740Z 19005KT 07/01 A3039 RMK A01 T00690010  RH  066%=      5-min Rain = 0
KTUR 081745Z 20004KT 07/01 A3038 RMK A01 T00700010  RH  066%=      5-min Rain = 0
KTUR 081750Z 21003KT 07/01 A3038 RMK A01 T00710010  RH  066%=      5-min Rain = 0
KTUR 081755Z 16004KT 07/01 A3038 RMK A01 T00710011  RH  066%=      5-min Rain = 0
KTUR 081800Z 15005KT 07/01 A3037 RMK A01 T00720013  RH  067%=      5-min Rain = 0
KTUR 081805Z 14004KT 07/01 A3037 RMK A01 T00740013  RH  066%=      5-min Rain = 0
KTUR 081810Z 15005KT 08/02 A3037 RMK A01 T00760017  RH  067%=      5-min Rain = 0
KTUR 081815Z 15004KT 08/02 A3036 RMK A01 T00780016  RH  066%=      5-min Rain = 0
KTUR 081820Z 13004KT 08/02 A3036 RMK A01 T00810017  RH  065%=      5-min Rain = 0
KTUR 081825Z 13004KT 08/02 A3036 RMK A01 T00810019  RH  065%=      5-min Rain = 0
KTUR 081830Z 14005KT 09/02 A3035 RMK A01 T00850022  RH  065%=      5-min Rain = 0
KTUR 081835Z 14005KT 09/03 A3035 RMK A01 T00900025  RH  065%=      5-min Rain = 0
KTUR 081840Z 16005KT 09/03 A3035 RMK A01 T00940026  RH  063%=      5-min Rain = 0
KTUR 081845Z 15004KT 09/03 A3034 RMK A01 T00930025  RH  063%=      5-min Rain = 0
KTUR 081850Z 13006KT 10/03 A3034 RMK A01 T00950029  RH  064%=      5-min Rain = 0
KTUR 081855Z 13005KT 10/03 A3034 RMK A01 T01000031  RH  063%=      5-min Rain = 0
KTUR 081900Z 13004KT 10/03 A3034 RMK A01 T01030032  RH  062%=      5-min Rain = 0
KTUR 081905Z 14003KT 10/03 A3033 RMK A01 T01000030  RH  063%=      5-min Rain = 0
KTUR 081910Z 15003G9KT 10/03 A3033 RMK A01 T01020033  RH  063%=      5-min Rain = 0
KTUR 081915Z 16006KT 11/04 A3032 RMK A01 T01080041  RH  064%=      5-min Rain = 0
KTUR 081920Z 15007KT 11/04 A3032 RMK A01 T01080043  RH  065%=      5-min Rain = 0
KTUR 081925Z 16007KT 11/04 A3032 RMK A01 T01080043  RH  065%=      5-min Rain = 0
KTUR 081930Z 16008KT 11/04 A3032 RMK A01 T01070044  RH  066%=      5-min Rain = 0
KTUR 081935Z 16006KT 11/04 A3031 RMK A01 T01060044  RH  066%=      5-min Rain = 0
KTUR 081940Z 15005KT 11/05 A3031 RMK A01 T01060046  RH  067%=      5-min Rain = 0
KTUR 081945Z 19007KT 11/05 A3031 RMK A01 T01100050  RH  067%=      5-min Rain = 0
KTUR 081950Z 19007KT 11/05 A3031 RMK A01 T01110052  RH  068%=      5-min Rain = 0
KTUR 081955Z 18008KT 11/05 A3031 RMK A01 T01120054  RH  068%=      5-min Rain = 0
KTUR 082000Z 19008KT 11/06 A303 RMK A01 T01130055  RH  068%=      5-min Rain = 0
KTUR 082005Z 19008KT 11/05 A303 RMK A01 T01130054  RH  068%=      5-min Rain = 0
KTUR 082010Z 19010KT 12/06 A303 RMK A01 T01150055  RH  068%=      5-min Rain = 0
KTUR 082015Z 18008KT 12/06 A303 RMK A01 T01160056  RH  068%=      5-min Rain = 0
KTUR 082020Z 17009KT 12/06 A3029 RMK A01 T01190058  RH  067%=      5-min Rain = 0
KTUR 082025Z 19009KT 12/06 A3029 RMK A01 T01180058  RH  067%=      5-min Rain = 0
KTUR 082030Z 18007KT 12/06 A3029 RMK A01 T01190057  RH  067%=      5-min Rain = 0
KTUR 082035Z 20007G12KT 12/06 A3029 RMK A01 T01200057  RH  066%=      5-min Rain = 0
KTUR 082040Z 19008KT 12/06 A3029 RMK A01 T01210059  RH  067%=      5-min Rain = 0
KTUR 082045Z 21007KT 12/06 A3029 RMK A01 T01220060  RH  067%=      5-min Rain = 0
KTUR 082050Z 20006KT 12/06 A3029 RMK A01 T01230060  RH  066%=      5-min Rain = 0
KTUR 082055Z 20005KT 12/06 A3028 RMK A01 T01240061  RH  067%=      5-min Rain = 0
KTUR 082100Z 20007KT 13/07 A3028 RMK A01 T01270065  RH  067%=      5-min Rain = 0
KTUR 082105Z 20007KT 13/07 A3028 RMK A01 T01270066  RH  067%=      5-min Rain = 0
KTUR 082110Z 20007KT 13/07 A3027 RMK A01 T01280066  RH  067%=      5-min Rain = 0
KTUR 082115Z 21007KT 13/07 A3027 RMK A01 T01290067  RH  067%=      5-min Rain = 0
KTUR 082120Z 20007KT 13/07 A3027 RMK A01 T01290067  RH  067%=      5-min Rain = 0
KTUR 082125Z 19007KT 13/07 A3027 RMK A01 T01290068  RH  067%=      5-min Rain = 0
KTUR 082130Z 21008KT 13/07 A3027 RMK A01 T01290067  RH  067%=      5-min Rain = 0
KTUR 082135Z 20007KT 13/07 A3027 RMK A01 T01290068  RH  067%=      5-min Rain = 0
KTUR 082140Z 20008KT 13/07 A3027 RMK A01 T01290068  RH  067%=      5-min Rain = 0
KTUR 082145Z 21006KT 13/07 A3026 RMK A01 T01290068  RH  068%=      5-min Rain = 0
KTUR 082150Z 22007KT 13/07 A3026 RMK A01 T01300071  RH  068%=      5-min Rain = 0
KTUR 082155Z 21010KT 13/07 A3026 RMK A01 T01310072  RH  068%=      5-min Rain = 0
KTUR 082200Z 21010KT 13/07 A3025 RMK A01 T01290073  RH  070%=      5-min Rain = 0
KTUR 082205Z 20011KT 13/07 A3025 RMK A01 T01280072  RH  070%=      5-min Rain = 0
KTUR 082210Z 21010KT 13/07 A3025 RMK A01 T01270073  RH  070%=      5-min Rain = 0
KTUR 082215Z 22011KT 13/07 A3025 RMK A01 T01280074  RH  070%=      5-min Rain = 0.01
KTUR 082220Z 21009KT 13/07 A3025 RMK A01 T01260072  RH  071%=      5-min Rain = 0
KTUR 082225Z 22010KT 13/07 A3025 RMK A01 T01270073  RH  071%=      5-min Rain = 0
KTUR 082230Z 22010KT 13/07 A3025 RMK A01 T01260073  RH  071%=      5-min Rain = 0
KTUR 082235Z 20009KT 13/07 A3025 RMK A01 T01290073  RH  070%=      5-min Rain = 0
KTUR 082240Z 20010KT 13/07 A3025 RMK A01 T01280072  RH  070%=      5-min Rain = 0
KTUR 082245Z 20009KT 13/07 A3025 RMK A01 T01250070  RH  070%=      5-min Rain = 0
KTUR 082250Z 20009KT 13/07 A3025 RMK A01 T01250071  RH  071%=      5-min Rain = 0
KTUR 082255Z 19008KT 12/07 A3026 RMK A01 T01240072  RH  072%=      5-min Rain = 0
KTUR 082300Z 19008KT 12/07 A3026 RMK A01 T01210072  RH  073%=      5-min Rain = 0
KTUR 082305Z 20007KT 12/07 A3026 RMK A01 T01200072  RH  074%=      5-min Rain = 0
KTUR 082310Z 20005KT 12/07 A3026 RMK A01 T01230073  RH  072%=      5-min Rain = 0
KTUR 082315Z 20007KT 12/07 A3026 RMK A01 T01240073  RH  072%=      5-min Rain = 0
KTUR 082320Z 20006KT 12/07 A3026 RMK A01 T01230072  RH  072%=      5-min Rain = 0
KTUR 082325Z 22007KT 12/07 A3026 RMK A01 T01200072  RH  073%=      5-min Rain = 0
KTUR 082330Z 23006KT 12/07 A3026 RMK A01 T01170073  RH  075%=      5-min Rain = 0
KTUR 082335Z 22006KT 12/07 A3026 RMK A01 T01150073  RH  076%=      5-min Rain = 0
KTUR 082340Z 22006KT 11/07 A3026 RMK A01 T01130073  RH  077%=      5-min Rain = 0
KTUR 082345Z 22005KT 11/08 A3026 RMK A01 T01120075  RH  079%=      5-min Rain = 0
KTUR 082350Z 21005KT 11/08 A3026 RMK A01 T01090075  RH  081%=      5-min Rain = 0
KTUR 082355Z 21005KT 11/07 A3026 RMK A01 T01090074  RH  080%=      5-min Rain = 0
KTUR 090000Z 22006KT 11/07 A3026 RMK A01 T01080073  RH  080%=      5-min Rain = 0
KTUR 090005Z 22007KT 11/07 A3026 RMK A01 T01080072  RH  080%=      5-min Rain = 0
KTUR 090010Z 22007KT 11/07 A3026 RMK A01 T01060072  RH  080%=      5-min Rain = 0
KTUR 090015Z 22006KT 11/07 A3026 RMK A01 T01050072  RH  081%=      5-min Rain = 0
KTUR 090020Z 23006KT 10/07 A3026 RMK A01 T01030072  RH  082%=      5-min Rain = 0
KTUR 090025Z 23005KT 10/07 A3026 RMK A01 T01000071  RH  083%=      5-min Rain = 0
KTUR 090030Z 23004KT 10/07 A3026 RMK A01 T00980070  RH  084%=      5-min Rain = 0
KTUR 090035Z 23004KT 10/07 A3026 RMK A01 T00970070  RH  085%=      5-min Rain = 0
KTUR 090040Z 23005KT 10/07 A3026 RMK A01 T00950069  RH  085%=      5-min Rain = 0
KTUR 090045Z 22005KT 09/07 A3027 RMK A01 T00920068  RH  086%=      5-min Rain = 0
KTUR 090050Z 21005KT 09/07 A3027 RMK A01 T00910068  RH  087%=      5-min Rain = 0
KTUR 090055Z 22005KT 09/07 A3027 RMK A01 T00900068  RH  088%=      5-min Rain = 0
KTUR 090100Z 23004KT 09/07 A3027 RMK A01 T00880067  RH  088%=      5-min Rain = 0
KTUR 090105Z 21004KT 09/07 A3027 RMK A01 T00870066  RH  088%=      5-min Rain = 0
KTUR 090110Z 21004KT 09/07 A3027 RMK A01 T00870066  RH  088%=      5-min Rain = 0
KTUR 090115Z 22004KT 09/07 A3027 RMK A01 T00870065  RH  087%=      5-min Rain = 0
KTUR 090120Z 23004KT 09/07 A3027 RMK A01 T00870065  RH  088%=      5-min Rain = 0
KTUR 090125Z 24004KT 08/06 A3027 RMK A01 T00840062  RH  087%=      5-min Rain = 0
KTUR 090130Z 22005KT 08/06 A3027 RMK A01 T00820061  RH  088%=      5-min Rain = 0
KTUR 090135Z 22004KT 08/06 A3027 RMK A01 T00820062  RH  088%=      5-min Rain = 0
KTUR 090140Z 22005KT 08/06 A3027 RMK A01 T00820062  RH  088%=      5-min Rain = 0
KTUR 090145Z 22005KT 08/06 A3027 RMK A01 T00810061  RH  088%=      5-min Rain = 0
KTUR 090150Z 22005KT 08/06 A3027 RMK A01 T00790060  RH  089%=      5-min Rain = 0
KTUR 090155Z 23005KT 08/06 A3027 RMK A01 T00780059  RH  090%=      5-min Rain = 0
KTUR 090200Z 23004KT 08/06 A3027 RMK A01 T00770060  RH  090%=      5-min Rain = 0
KTUR 090205Z 24004KT 08/06 A3026 RMK A01 T00790061  RH  090%=      5-min Rain = 0
KTUR 090210Z 24005KT 08/06 A3026 RMK A01 T00790060  RH  089%=      5-min Rain = 0
KTUR 090215Z 24004KT 08/06 A3026 RMK A01 T00770059  RH  089%=      5-min Rain = 0
KTUR 090220Z 25004KT 08/06 A3026 RMK A01 T00760058  RH  090%=      5-min Rain = 0
KTUR 090225Z 25004KT 07/06 A3026 RMK A01 T00740057  RH  090%=      5-min Rain = 0
KTUR 090230Z 25004KT 07/05 A3026 RMK A01 T00710054  RH  090%=      5-min Rain = 0
KTUR 090235Z 24005KT 07/06 A3026 RMK A01 T00710055  RH  090%=      5-min Rain = 0
KTUR 090240Z 24005KT 07/05 A3026 RMK A01 T00700053  RH  090%=      5-min Rain = 0
KTUR 090245Z 24005KT 07/05 A3026 RMK A01 T00680052  RH  091%=      5-min Rain = 0
KTUR 090250Z 24005KT 07/05 A3026 RMK A01 T00670052  RH  091%=      5-min Rain = 0
KTUR 090255Z 24005KT 07/05 A3026 RMK A01 T00660051  RH  092%=      5-min Rain = 0
KTUR 090300Z 24005KT 07/05 A3026 RMK A01 T00650051  RH  092%=      5-min Rain = 0
KTUR 090305Z 24005KT 07/05 A3026 RMK A01 T00650050  RH  092%=      5-min Rain = 0
KTUR 090310Z 23004KT 06/05 A3026 RMK A01 T00640049  RH  092%=      5-min Rain = 0
KTUR 090315Z 24004KT 06/05 A3027 RMK A01 T00640049  RH  091%=      5-min Rain = 0
KTUR 090320Z 25004KT 06/05 A3027 RMK A01 T00620047  RH  091%=      5-min Rain = 0
KTUR 090325Z 24005KT 06/05 A3027 RMK A01 T00610047  RH  092%=      5-min Rain = 0
KTUR 090330Z 24004KT 06/05 A3027 RMK A01 T00640050  RH  092%=      5-min Rain = 0
KTUR 090335Z 23004KT 06/05 A3027 RMK A01 T00640048  RH  091%=      5-min Rain = 0
KTUR 090340Z 23004KT 07/05 A3027 RMK A01 T00650049  RH  091%=      5-min Rain = 0
KTUR 090345Z 24003KT 07/05 A3027 RMK A01 T00660049  RH  090%=      5-min Rain = 0
KTUR 090350Z 24002KT 07/05 A3028 RMK A01 T00680051  RH  090%=      5-min Rain = 0
KTUR 090355Z 23003KT 07/05 A3028 RMK A01 T00710053  RH  089%=      5-min Rain = 0
KTUR 090400Z 23003KT 07/05 A3028 RMK A01 T00710051  RH  089%=      5-min Rain = 0
KTUR 090405Z 23003KT 07/05 A3028 RMK A01 T00670048  RH  089%=      5-min Rain = 0
KTUR 090410Z 24003KT 07/05 A3028 RMK A01 T00660050  RH  090%=      5-min Rain = 0
KTUR 090415Z 24003KT 07/05 A3028 RMK A01 T00660048  RH  090%=      5-min Rain = 0
KTUR 090420Z 25003KT 07/05 A3028 RMK A01 T00660049  RH  090%=      5-min Rain = 0
KTUR 090425Z 25003KT 07/05 A3028 RMK A01 T00660049  RH  090%=      5-min Rain = 0
KTUR 090430Z 24004KT 07/05 A3027 RMK A01 T00670049  RH  090%=      5-min Rain = 0
KTUR 090435Z 24003KT 07/05 A3027 RMK A01 T00680051  RH  090%=      5-min Rain = 0
KTUR 090440Z 23004KT 07/05 A3027 RMK A01 T00690050  RH  089%=      5-min Rain = 0
KTUR 090445Z 23004KT 07/05 A3027 RMK A01 T00690050  RH  089%=      5-min Rain = 0
KTUR 090450Z 22004KT 07/05 A3027 RMK A01 T00670050  RH  090%=      5-min Rain = 0
KTUR 090455Z 22004KT 07/05 A3027 RMK A01 T00680050  RH  090%=      5-min Rain = 0
KTUR 090500Z 22004KT 07/05 A3027 RMK A01 T00660048  RH  089%=      5-min Rain = 0
KTUR 090505Z 22004KT 06/05 A3027 RMK A01 T00610045  RH  091%=      5-min Rain = 0
KTUR 090510Z 22004KT 06/05 A3027 RMK A01 T00610046  RH  092%=      5-min Rain = 0
KTUR 090515Z 23003KT 06/05 A3027 RMK A01 T00620047  RH  092%=      5-min Rain = 0
KTUR 090520Z 23003KT 06/05 A3027 RMK A01 T00600045  RH  091%=      5-min Rain = 0
KTUR 090525Z 24003KT 07/05 A3026 RMK A01 T00650051  RH  092%=      5-min Rain = 0
KTUR 090530Z 27004KT 07/05 A3026 RMK A01 T00670050  RH  091%=      5-min Rain = 0
KTUR 090535Z 27005KT 07/05 A3026 RMK A01 T00680052  RH  090%=      5-min Rain = 0
KTUR 090540Z 26006KT 07/05 A3026 RMK A01 T00670051  RH  091%=      5-min Rain = 0
KTUR 090545Z 25005KT 07/05 A3025 RMK A01 T00690054  RH  091%=      5-min Rain = 0
KTUR 090550Z 25005KT 07/05 A3025 RMK A01 T00660050  RH  091%=      5-min Rain = 0
KTUR 090555Z 25005KT 06/05 A3025 RMK A01 T00640049  RH  092%=      5-min Rain = 0

Page generated in 0.0169 seconds.